Time;durP1;ratioP1;P1;durP2;ratioP2;P2;SDS_P1;SDS_P2;PMS_P1;PMS_P2;Temp;Humidity;BMP_temperature;BMP_pressure;BME280_temperature;BME280_humidity;BME280_pressure;Samples;Min_cycle;Max_cycle;Signal;HPM_P1;HPM_P2
2022/06/23 00:01:46;;;;;;;4.10;2.20;;;;;;;13.48;65.37;96436.86;107613;1269;53176;-80
2022/06/23 00:04:22;;;;;;;3.30;2.00;;;;;;;13.52;65.82;96435.20;107638;1268;35199;-80
2022/06/23 00:06:56;;;;;;;3.10;2.00;;;;;;;13.42;66.01;96431.45;107633;1269;32313;-80
2022/06/23 00:09:41;;;;;;;2.30;1.80;;;;;;;13.25;66.22;96434.06;107618;1269;45853;-80
2022/06/23 00:12:26;;;;;;;3.70;1.80;;;;;;;13.09;66.64;96429.52;107610;1269;43631;-80
2022/06/23 00:15:15;;;;;;;3.00;1.70;;;;;;;12.93;67.27;96429.95;107652;1269;33217;-80
2022/06/23 00:17:54;;;;;;;3.50;2.10;;;;;;;12.86;67.66;96421.42;107470;1269;108487;-80
2022/06/23 00:20:31;;;;;;;2.40;1.80;;;;;;;12.88;68.10;96417.34;107603;1269;39015;-80
2022/06/23 00:23:12;;;;;;;3.70;2.10;;;;;;;12.74;68.35;96422.89;107733;1269;25830;-80
2022/06/23 00:25:50;;;;;;;3.70;1.90;;;;;;;12.73;68.71;96428.16;107580;1269;45962;-79
2022/06/23 00:28:26;;;;;;;4.20;1.70;;;;;;;12.82;68.69;96429.80;107636;1269;33706;-80
2022/06/23 00:31:03;;;;;;;4.00;1.80;;;;;;;12.99;68.62;96422.80;107557;1270;35339;-80
2022/06/23 00:33:42;;;;;;;5.30;2.20;;;;;;;13.12;68.19;96415.46;107549;1269;59318;-79
2022/06/23 00:36:31;;;;;;;4.30;1.70;;;;;;;13.19;67.84;96415.17;107578;1269;43882;-80
2022/06/23 00:39:03;;;;;;;2.70;1.70;;;;;;;13.24;67.74;96413.69;107605;1269;33533;-79
2022/06/23 00:41:38;;;;;;;4.80;1.80;;;;;;;13.17;67.68;96417.77;107518;1269;75388;-80
2022/06/23 00:44:18;;;;;;;3.90;2.10;;;;;;;12.98;68.25;96415.48;107652;1269;37384;-80
2022/06/23 00:46:54;;;;;;;3.90;1.60;;;;;;;12.88;68.56;96416.84;107548;1269;51766;-80
2022/06/23 00:49:32;;;;;;;2.90;2.00;;;;;;;12.79;68.70;96420.21;107506;1271;48606;-80
2022/06/23 00:52:21;;;;;;;5.30;1.90;;;;;;;12.78;68.79;96415.81;107581;1269;38541;-80
2022/06/23 00:54:58;;;;;;;4.40;1.80;;;;;;;12.78;69.07;96415.45;107614;1269;32317;-80
2022/06/23 00:57:36;;;;;;;3.70;1.80;;;;;;;12.74;69.21;96417.60;107587;1269;88715;-80
2022/06/23 01:00:17;;;;;;;2.80;1.90;;;;;;;12.69;69.36;96412.66;107544;1269;56408;-80
2022/06/23 01:02:55;;;;;;;2.80;2.00;;;;;;;12.67;69.43;96417.49;107530;1271;55698;-80
2022/06/23 01:05:33;;;;;;;4.10;2.60;;;;;;;12.68;69.54;96419.54;107595;1270;33829;-80
2022/06/23 01:08:13;;;;;;;1.90;1.70;;;;;;;12.61;69.67;96416.95;107426;1270;63431;-79
2022/06/23 01:10:50;;;;;;;4.70;2.10;;;;;;;12.45;69.90;96419.08;107619;1270;35617;-80
2022/06/23 01:13:29;;;;;;;2.10;1.80;;;;;;;12.42;70.26;96421.14;107588;1270;37355;-80
2022/06/23 01:16:06;;;;;;;3.90;2.00;;;;;;;12.59;70.13;96423.60;107601;1270;74056;-80
2022/06/23 01:18:42;;;;;;;2.10;1.80;;;;;;;12.69;69.93;96427.45;107550;1271;54269;-80
2022/06/23 01:21:19;;;;;;;2.50;1.70;;;;;;;12.66;69.88;96425.97;107556;1270;49955;-80
2022/06/23 01:24:10;;;;;;;2.30;1.70;;;;;;;12.50;69.96;96426.21;107564;1270;69615;-80
2022/06/23 01:27:01;;;;;;;4.10;2.10;;;;;;;12.40;70.28;96430.02;107529;1270;35161;-80
2022/06/23 01:29:38;;;;;;;4.70;2.40;;;;;;;12.46;70.08;96431.16;107681;1270;34178;-80
2022/06/23 01:32:19;;;;;;;3.30;2.10;;;;;;;12.55;69.88;96427.19;107490;1269;69079;-79
2022/06/23 01:34:56;;;;;;;6.00;2.00;;;;;;;12.64;69.59;96428.65;107593;1270;50380;-80
2022/06/23 01:37:32;;;;;;;2.80;1.90;;;;;;;12.71;69.32;96427.20;107616;1270;41164;-80
2022/06/23 01:40:12;;;;;;;5.20;2.20;;;;;;;12.66;69.23;96423.72;107549;1270;40502;-78
2022/06/23 01:42:49;;;;;;;4.70;2.20;;;;;;;12.67;69.22;96425.42;107633;1270;29577;-80
2022/06/23 01:45:26;;;;;;;3.30;1.90;;;;;;;12.68;69.07;96429.12;107568;1270;73846;-80
2022/06/23 01:48:02;;;;;;;4.30;2.10;;;;;;;12.65;68.95;96433.95;107430;1270;104427;-80
2022/06/23 01:50:40;;;;;;;2.90;1.80;;;;;;;12.53;69.04;96434.66;107592;1270;41126;-79
2022/06/23 01:53:29;;;;;;;4.90;1.90;;;;;;;12.39;69.22;96436.99;107504;1270;78056;-80
2022/06/23 01:56:28;;;;;;;2.70;1.80;;;;;;;12.36;69.24;96436.89;107585;1270;54720;-80
2022/06/23 01:59:10;;;;;;;3.20;1.80;;;;;;;12.43;69.38;96437.52;107629;1270;78820;-80
2022/06/23 02:02:06;;;;;;;3.20;1.90;;;;;;;12.49;69.14;96437.86;107522;1270;46528;-80
2022/06/23 02:04:45;;;;;;;4.50;2.20;;;;;;;12.51;68.90;96438.16;107622;1270;30130;-80
2022/06/23 02:07:23;;;;;;;7.40;2.00;;;;;;;12.50;68.74;96438.86;107571;1270;41911;-81
2022/06/23 02:10:00;;;;;;;2.90;1.90;;;;;;;12.40;68.83;96440.54;107526;1270;68543;-80
2022/06/23 02:12:41;;;;;;;4.80;1.90;;;;;;;12.27;69.00;96440.02;107629;1272;52852;-80
2022/06/23 02:15:15;;;;;;;;;;;;;;;12.23;69.19;96442.42;107605;1270;40975;-80
2022/06/23 02:17:52;;;;;;;2.70;1.60;;;;;;;12.25;69.18;96445.49;107442;1271;45556;-80
2022/06/23 02:20:48;;;;;;;3.70;1.90;;;;;;;12.25;68.91;96447.66;107522;1271;44282;-80
2022/06/23 02:23:30;;;;;;;2.90;1.70;;;;;;;12.17;69.04;96446.20;107480;1270;52796;-80
2022/06/23 02:26:07;;;;;;;2.30;1.80;;;;;;;12.06;69.32;96451.05;107619;1270;66615;-80
2022/06/23 02:28:43;;;;;;;4.30;1.60;;;;;;;12.05;69.41;96452.68;107575;1271;32196;-80
2022/06/23 02:31:23;;;;;;;2.80;1.80;;;;;;;12.14;69.32;96452.95;107685;1270;34186;-80
2022/06/23 02:33:58;;;;;;;3.40;2.00;;;;;;;12.29;69.17;96453.48;107642;1270;73906;-80
2022/06/23 02:36:54;;;;;;;2.90;1.70;;;;;;;12.42;68.92;96455.92;107665;1270;41594;-81
2022/06/23 02:39:36;;;;;;;2.60;1.70;;;;;;;12.50;68.41;96460.40;107591;1271;32810;-80
2022/06/23 02:42:23;;;;;;;3.90;1.90;;;;;;;12.62;68.37;96461.52;107535;1271;64952;-81
2022/06/23 02:45:13;;;;;;;3.20;1.90;;;;;;;12.67;68.26;96459.25;107554;1271;56314;-80
2022/06/23 02:48:00;;;;;;;4.10;2.10;;;;;;;12.67;68.08;96462.60;107591;1270;35518;-80
2022/06/23 02:51:01;;;;;;;3.30;1.90;;;;;;;12.68;67.94;96460.66;107700;1270;49866;-80
2022/06/23 02:53:51;;;;;;;2.60;1.80;;;;;;;12.66;67.82;96462.70;107555;1270;49710;-80
2022/06/23 02:56:51;;;;;;;3.60;1.50;;;;;;;12.63;67.73;96465.44;107592;1271;33136;-80
2022/06/23 02:59:30;;;;;;;2.70;1.60;;;;;;;12.61;67.79;96465.20;107537;1270;54824;-80
2022/06/23 03:02:07;;;;;;;4.00;2.10;;;;;;;12.60;67.95;96465.55;107633;1271;48327;-80
2022/06/23 03:04:46;;;;;;;4.60;2.50;;;;;;;12.61;68.09;96468.61;107547;1270;52881;-80
2022/06/23 03:07:22;;;;;;;3.60;1.60;;;;;;;12.68;67.98;96470.55;107527;1271;46743;-80
2022/06/23 03:10:04;;;;;;;3.90;1.90;;;;;;;12.72;67.85;96477.86;107544;1270;34305;-80
2022/06/23 03:12:44;;;;;;;4.00;1.80;;;;;;;12.75;67.85;96482.86;107574;1271;38738;-79
2022/06/23 03:15:23;;;;;;;4.90;2.00;;;;;;;12.76;67.75;96490.09;107572;1270;53054;-80
2022/06/23 03:17:59;;;;;;;3.30;1.80;;;;;;;12.81;67.79;96497.08;107467;1272;35734;-79
2022/06/23 03:20:40;;;;;;;4.20;1.60;;;;;;;12.85;67.66;96501.67;107645;1269;34080;-80
2022/06/23 03:23:22;;;;;;;2.10;1.50;;;;;;;12.92;67.45;96507.82;107511;1271;45830;-80
2022/06/23 03:26:00;;;;;;;2.10;1.60;;;;;;;12.98;67.27;96508.72;107621;1270;35918;-80
2022/06/23 03:28:36;;;;;;;3.20;1.50;;;;;;;13.05;67.07;96509.96;107688;1270;31307;-80
2022/06/23 03:31:15;;;;;;;2.50;1.80;;;;;;;13.11;67.06;96517.32;107480;1272;36363;-80
2022/06/23 03:33:52;;;;;;;4.20;1.90;;;;;;;13.17;67.42;96516.61;107612;1270;33389;-80
2022/06/23 03:36:29;;;;;;;3.10;2.20;;;;;;;13.25;67.30;96521.22;107548;1270;49732;-80
2022/06/23 03:41:59;;;;;;;4.40;2.20;;;;;;;13.40;67.52;96519.06;107650;1271;32254;-81
2022/06/23 03:44:40;;;;;;;3.40;2.10;;;;;;;13.45;67.47;96521.02;107553;1269;71893;-80
2022/06/23 03:47:22;;;;;;;5.40;2.60;;;;;;;13.53;67.19;96523.14;107570;1270;48369;-80
2022/06/23 03:49:58;;;;;;;4.40;2.10;;;;;;;13.64;67.13;96520.52;107597;1270;34874;-80
2022/06/23 03:52:37;;;;;;;2.90;2.10;;;;;;;13.76;67.03;96524.04;107582;1270;42414;-80
2022/06/23 03:55:21;;;;;;;6.50;2.80;;;;;;;13.87;67.03;96523.78;107604;1270;42383;-80
2022/06/23 03:57:56;;;;;;;3.80;2.30;;;;;;;13.97;66.96;96524.80;107576;1270;53972;-80
2022/06/23 04:00:37;;;;;;;3.90;2.40;;;;;;;14.06;66.64;96524.91;107540;1271;52422;-80
2022/06/23 04:03:30;;;;;;;3.80;2.30;;;;;;;14.14;66.41;96528.39;107554;1270;43727;-80
2022/06/23 04:06:16;;;;;;;4.60;2.00;;;;;;;14.25;66.44;96532.40;107571;1271;35779;-80
2022/06/23 04:08:59;;;;;;;3.50;2.30;;;;;;;14.35;66.24;96534.56;107501;1270;42572;-80
2022/06/23 04:11:46;;;;;;;3.50;2.70;;;;;;;14.48;66.30;96535.23;107658;1270;34195;-80
2022/06/23 04:14:32;;;;;;;6.00;2.50;;;;;;;14.60;66.42;96533.81;107396;1271;49621;-80
2022/06/23 04:17:16;;;;;;;4.40;2.70;;;;;;;14.72;66.37;96533.46;107586;1271;35991;-79
2022/06/23 04:19:53;;;;;;;3.00;2.40;;;;;;;14.84;66.12;96536.61;107578;1270;34317;-80
2022/06/23 04:22:30;;;;;;;3.20;2.20;;;;;;;14.98;65.80;96543.67;107574;1270;50130;-80
2022/06/23 04:25:03;;;;;;;4.60;3.20;;;;;;;15.11;65.54;96544.61;107666;1270;31399;-80
2022/06/23 04:27:42;;;;;;;4.70;2.70;;;;;;;15.24;65.57;96551.63;107647;1270;37612;-80
2022/06/23 04:30:24;;;;;;;4.10;2.60;;;;;;;15.37;65.18;96553.46;107547;1270;48716;-80
2022/06/23 04:32:57;;;;;;;4.70;2.30;;;;;;;15.43;64.75;96555.52;107571;1270;38923;-80
2022/06/23 04:35:35;;;;;;;4.00;2.60;;;;;;;15.46;64.05;96560.83;107662;1270;33306;-80
2022/06/23 04:38:24;;;;;;;3.70;2.10;;;;;;;15.55;64.03;96563.48;107572;1271;40561;-79
2022/06/23 04:41:02;;;;;;;4.80;2.60;;;;;;;15.69;63.92;96557.75;107654;1270;33442;-80
2022/06/23 04:43:39;;;;;;;4.70;2.60;;;;;;;15.87;63.80;96561.48;107633;1270;30073;-79
2022/06/23 04:46:14;;;;;;;5.30;2.30;;;;;;;16.04;63.49;96568.70;107560;1270;45036;-80
2022/06/23 04:48:51;;;;;;;5.40;2.40;;;;;;;16.17;63.01;96565.72;107608;1271;30487;-79
2022/06/23 04:51:35;;;;;;;5.00;2.10;;;;;;;16.32;62.45;96568.08;107606;1271;31687;-79
2022/06/23 04:54:15;;;;;;;3.30;2.10;;;;;;;16.47;62.29;96569.65;107588;1271;45601;-79
2022/06/23 04:56:53;;;;;;;4.20;2.40;;;;;;;16.61;61.83;96569.09;107575;1271;35153;-80
2022/06/23 04:59:38;;;;;;;5.70;2.30;;;;;;;16.70;61.34;96572.47;107595;1270;34895;-80
2022/06/23 05:02:32;;;;;;;3.30;2.10;;;;;;;16.84;61.43;96578.04;107596;1270;39256;-79
2022/06/23 05:05:10;;;;;;;3.20;2.30;;;;;;;17.02;61.18;96574.41;107616;1271;48623;-77
2022/06/23 05:07:47;;;;;;;4.60;2.30;;;;;;;17.20;61.23;96573.11;107574;1270;47054;-80
2022/06/23 05:10:24;;;;;;;4.30;2.40;;;;;;;17.38;60.55;96574.58;107633;1271;34538;-80
2022/06/23 05:12:59;;;;;;;4.80;2.40;;;;;;;17.56;59.83;96574.69;106288;1271;1627113;-80
2022/06/23 05:15:36;;;;;;;3.70;2.40;;;;;;;17.79;59.69;96575.37;107613;1271;51237;-80
2022/06/23 05:18:12;;;;;;;3.70;2.40;;;;;;;18.20;59.83;96579.20;107585;1271;38318;-80
2022/06/23 05:20:52;;;;;;;3.40;2.40;;;;;;;18.67;58.88;96583.89;107507;1270;54801;-80
2022/06/23 05:23:27;;;;;;;;;;;;;;;19.18;58.33;96589.14;107558;1270;57295;-80
2022/06/23 05:26:07;;;;;;;3.70;2.30;;;;;;;20.62;58.69;96590.42;107637;1270;46632;-80
2022/06/23 05:28:41;;;;;;;3.00;1.90;;;;;;;23.76;57.08;96590.72;107499;1271;54779;-80
2022/06/23 05:31:19;;;;;;;5.00;2.10;;;;;;;26.79;52.48;96590.31;107494;1271;53745;-81
2022/06/23 05:33:53;;;;;;;3.80;1.90;;;;;;;28.99;47.83;96598.34;107591;1270;33445;-80
2022/06/23 05:36:29;;;;;;;3.80;2.10;;;;;;;31.08;44.45;96599.27;107494;1269;36075;-81
2022/06/23 05:39:06;;;;;;;3.40;1.80;;;;;;;32.39;40.81;96600.39;107671;1270;34276;-81
2022/06/23 05:41:42;;;;;;;3.60;1.50;;;;;;;33.54;38.41;96603.83;107610;1269;38853;-81
2022/06/23 05:44:18;;;;;;;4.20;1.60;;;;;;;34.70;36.22;96604.70;107465;1270;59076;-81
2022/06/23 05:46:52;;;;;;;3.30;1.70;;;;;;;35.63;34.27;96604.42;107600;1270;33954;-81
2022/06/23 05:49:26;;;;;;;3.20;1.70;;;;;;;36.42;32.35;96608.64;107585;1270;39113;-82
2022/06/23 05:52:02;;;;;;;4.20;1.50;;;;;;;36.72;30.19;96609.79;107499;1270;71310;-82
2022/06/23 05:54:39;;;;;;;3.00;1.50;;;;;;;36.97;29.58;96610.05;107604;1270;33494;-81
2022/06/23 05:57:18;;;;;;;4.10;1.30;;;;;;;37.76;28.37;96615.91;107576;1271;34980;-81
2022/06/23 06:00:07;;;;;;;3.10;1.30;;;;;;;38.73;26.91;96616.20;107515;1271;52286;-82
2022/06/23 06:02:46;;;;;;;2.60;1.70;;;;;;;38.79;26.16;96619.07;107474;1271;41637;-82
2022/06/23 06:05:28;;;;;;;2.40;1.50;;;;;;;39.46;25.20;96615.29;107693;1270;32271;-82
2022/06/23 06:08:00;;;;;;;2.60;1.40;;;;;;;38.92;24.54;96617.17;107648;1271;55730;-82
2022/06/23 06:10:34;;;;;;;3.60;1.30;;;;;;;39.82;24.51;96622.23;107703;1270;34169;-82
2022/06/23 06:13:12;;;;;;;3.50;1.10;;;;;;;40.48;23.62;96620.40;107595;1271;41460;-81
2022/06/23 06:15:49;;;;;;;5.00;1.60;;;;;;;41.00;23.11;96622.20;107510;1271;43785;-82
2022/06/23 06:18:27;;;;;;;3.30;1.40;;;;;;;41.83;22.31;96623.31;107609;1271;31744;-82
2022/06/23 06:21:03;;;;;;;3.70;1.40;;;;;;;41.03;20.45;96620.90;107626;1271;61609;-82
2022/06/23 06:23:45;;;;;;;2.30;1.10;;;;;;;40.01;20.48;96622.65;107511;1271;60345;-81
2022/06/23 06:26:20;;;;;;;3.40;1.40;;;;;;;40.09;21.44;96620.69;107611;1271;37237;-83
2022/06/23 06:28:55;;;;;;;3.90;1.40;;;;;;;41.43;20.79;96623.64;107586;1271;44510;-82
2022/06/23 06:31:31;;;;;;;2.80;1.10;;;;;;;41.67;20.35;96624.86;107638;1270;59614;-83
2022/06/23 06:34:08;;;;;;;4.40;1.40;;;;;;;42.41;20.20;96629.95;107688;1271;32308;-82
2022/06/23 06:36:42;;;;;;;3.00;1.20;;;;;;;42.38;19.52;96632.84;107537;1271;53884;-82
2022/06/23 06:39:18;;;;;;;1.70;1.20;;;;;;;42.21;18.26;96635.11;107690;1270;39583;-83
2022/06/23 06:41:52;;;;;;;2.30;1.40;;;;;;;40.71;18.72;96640.41;107638;1270;38244;-82
2022/06/23 06:44:23;;;;;;;2.30;1.30;;;;;;;40.83;19.85;96643.52;107695;1270;51383;-83
2022/06/23 06:46:56;;;;;;;2.30;1.30;;;;;;;42.05;19.27;96646.39;107589;1271;33489;-83
2022/06/23 06:49:29;;;;;;;3.60;1.40;;;;;;;43.01;19.05;96648.96;107561;1271;95637;-83
2022/06/23 06:52:02;;;;;;;2.00;1.40;;;;;;;43.00;17.16;96650.96;107691;1270;33288;-83
2022/06/23 06:54:42;;;;;;;2.30;1.10;;;;;;;41.14;17.64;96655.44;107743;1270;38229;-83
2022/06/23 06:57:19;;;;;;;2.20;1.00;;;;;;;41.68;18.09;96655.42;107642;1271;62838;-83
2022/06/23 07:00:05;;;;;;;2.30;1.20;;;;;;;41.61;18.01;96655.09;107605;1271;56191;-83
2022/06/23 07:02:42;;;;;;;2.90;1.80;;;;;;;42.51;17.18;96651.23;107840;1270;46940;-82
2022/06/23 07:05:24;;;;;;;2.40;1.70;;;;;;;40.37;17.04;96654.92;107589;1270;87059;-83
2022/06/23 07:08:02;;;;;;;1.90;1.30;;;;;;;39.02;17.92;96655.84;107596;1271;49646;-83
2022/06/23 07:10:37;;;;;;;2.30;1.30;;;;;;;39.06;18.88;96658.07;107681;1271;32861;-82
2022/06/23 07:13:15;;;;;;;2.30;1.50;;;;;;;38.85;18.46;96659.73;107606;1271;36169;-83
2022/06/23 07:15:50;;;;;;;2.40;1.50;;;;;;;37.89;18.92;96661.71;107692;1271;62026;-82
2022/06/23 07:18:27;;;;;;;2.70;1.40;;;;;;;37.06;19.65;96663.97;107668;1270;31668;-82
2022/06/23 07:21:05;;;;;;;2.20;1.40;;;;;;;36.98;19.72;96661.58;107647;1271;55817;-83
2022/06/23 07:23:42;;;;;;;3.10;1.50;;;;;;;37.25;20.61;96663.41;107664;1271;36071;-83
2022/06/23 07:26:29;;;;;;;7.00;1.50;;;;;;;38.52;20.88;96670.05;107748;1271;33145;-83
2022/06/23 07:29:08;;;;;;;1.90;1.20;;;;;;;39.40;19.33;96675.36;107768;1271;78771;-83
2022/06/23 07:31:49;;;;;;;3.30;1.30;;;;;;;40.21;19.30;96677.50;107561;1271;45794;-83
2022/06/23 07:34:23;;;;;;;2.40;1.20;;;;;;;41.30;19.02;96678.98;107624;1271;45535;-83
2022/06/23 07:36:57;;;;;;;4.30;1.50;;;;;;;42.19;18.18;96674.16;107751;1271;65438;-84
2022/06/23 07:39:34;;;;;;;3.50;1.30;;;;;;;43.18;17.84;96677.84;107797;1271;34853;-83
2022/06/23 07:42:12;;;;;;;3.50;1.30;;;;;;;43.37;15.83;96683.02;107716;1271;50442;-83
2022/06/23 07:44:48;;;;;;;2.80;1.30;;;;;;;42.13;16.80;96682.98;107490;1271;100672;-83
2022/06/23 07:47:22;;;;;;;2.30;1.40;;;;;;;42.44;16.47;96684.91;107591;1271;35720;-83
2022/06/23 07:49:53;;;;;;;2.30;1.40;;;;;;;41.24;16.63;96688.30;107773;1271;50747;-83
2022/06/23 07:52:25;;;;;;;3.20;1.60;;;;;;;40.31;17.25;96690.58;107648;1270;36790;-84
2022/06/23 07:54:57;;;;;;;2.10;1.60;;;;;;;40.86;17.95;96688.69;107579;1271;31393;-83
2022/06/23 07:57:30;;;;;;;2.60;1.50;;;;;;;42.60;17.23;96687.11;107638;1271;34805;-83
2022/06/23 08:00:06;;;;;;;3.30;1.60;;;;;;;43.35;16.56;96690.02;107567;1271;52699;-84
2022/06/23 08:02:48;;;;;;;1.90;1.60;;;;;;;42.54;14.87;96690.53;107584;1270;34142;-83
2022/06/23 08:05:25;;;;;;;2.60;1.50;;;;;;;41.38;16.99;96695.06;107736;1271;34544;-83
2022/06/23 08:07:57;;;;;;;1.70;1.50;;;;;;;42.68;16.83;96698.16;107749;1271;59608;-81
2022/06/23 08:10:33;;;;;;;2.20;1.60;;;;;;;43.39;15.79;96699.77;107656;1271;63074;-83
2022/06/23 08:13:10;;;;;;;1.60;1.50;;;;;;;43.81;16.17;96699.83;107676;1271;35787;-83
2022/06/23 08:18:38;;;;;;;2.40;1.80;;;;;;;43.83;14.37;96695.17;107500;1271;61649;-83
2022/06/23 08:21:12;;;;;;;2.70;1.90;;;;;;;43.78;15.75;96698.73;107587;1271;78323;-83
2022/06/23 08:23:49;;;;;;;2.20;1.70;;;;;;;43.93;14.68;96700.41;107840;1271;80079;-83
2022/06/23 08:26:19;;;;;;;;;;;;;;;43.73;15.26;96704.05;107862;1271;72657;-84
2022/06/23 08:28:53;;;;;;;2.30;2.10;;;;;;;44.21;15.34;96704.77;107620;1271;35504;-83
2022/06/23 08:31:26;;;;;;;2.50;2.30;;;;;;;45.05;15.11;96706.64;107530;1271;40528;-84
2022/06/23 08:33:59;;;;;;;2.60;2.40;;;;;;;45.84;14.73;96705.25;107679;1271;52144;-83
2022/06/23 08:36:39;;;;;;;2.50;2.30;;;;;;;46.55;14.39;96706.75;107846;1271;56429;-84
2022/06/23 08:39:15;;;;;;;3.30;2.60;;;;;;;46.93;14.18;96709.41;107816;1271;47533;-83
2022/06/23 08:41:52;;;;;;;3.10;2.80;;;;;;;47.50;13.70;96707.65;107854;1271;39865;-83
2022/06/23 08:44:35;;;;;;;3.50;2.50;;;;;;;47.48;13.35;96705.56;107805;1271;54508;-84
2022/06/23 08:47:15;;;;;;;2.20;2.00;;;;;;;46.97;13.33;96707.35;107717;1271;38278;-84
2022/06/23 08:49:54;;;;;;;1.80;1.30;;;;;;;46.23;13.09;96710.50;107699;1271;31332;-83
2022/06/23 08:52:35;;;;;;;2.60;1.10;;;;;;;44.58;13.47;96709.27;107596;1271;33700;-82
2022/06/23 08:55:14;;;;;;;1.80;1.30;;;;;;;41.83;14.60;96704.88;107470;1271;65041;-81
2022/06/23 08:58:00;;;;;;;1.80;1.10;;;;;;;39.56;15.77;96709.82;107549;1270;40688;-82
2022/06/23 09:00:37;;;;;;;2.10;1.20;;;;;;;37.17;16.49;96705.16;107678;1271;32159;-82
2022/06/23 09:03:16;;;;;;;2.70;1.40;;;;;;;34.73;19.26;96713.98;107509;1271;78287;-81
2022/06/23 09:05:56;;;;;;;2.60;1.10;;;;;;;33.73;19.71;96707.88;107538;1271;45951;-81
2022/06/23 09:08:28;;;;;;;;;;;;;;;32.62;20.54;96707.67;107566;1271;33655;-82
2022/06/23 09:11:09;;;;;;;2.90;1.20;;;;;;;31.59;22.47;96705.23;107615;1271;40953;-82
2022/06/23 09:13:55;;;;;;;3.40;1.20;;;;;;;31.44;23.01;96708.31;107536;1271;39865;-81
2022/06/23 09:16:51;;;;;;;1.50;1.00;;;;;;;31.29;24.07;96709.48;107561;1271;34182;-82
2022/06/23 09:19:36;;;;;;;2.10;1.20;;;;;;;31.43;23.93;96708.33;107596;1268;31365;-81
2022/06/23 09:22:22;;;;;;;3.30;1.50;;;;;;;31.38;23.44;96708.33;107510;1271;59486;-81
2022/06/23 09:25:04;;;;;;;3.30;1.10;;;;;;;30.83;23.21;96709.27;107527;1271;36535;-82
2022/06/23 09:27:52;;;;;;;2.60;1.20;;;;;;;29.92;25.05;96709.80;107565;1271;57011;-80
2022/06/23 09:30:35;;;;;;;5.00;1.20;;;;;;;29.77;25.20;96709.20;107418;1271;111717;-82
2022/06/23 09:33:21;;;;;;;3.90;1.30;;;;;;;29.86;25.04;96712.41;107478;1271;36965;-81
2022/06/23 09:36:26;;;;;;;5.90;2.70;;;;;;;29.20;24.39;96706.20;107572;1271;39969;-81
2022/06/23 09:39:22;;;;;;;4.10;2.00;;;;;;;28.04;26.18;96700.08;107563;1271;42751;-81
2022/06/23 09:42:20;;;;;;;3.90;2.20;;;;;;;27.49;27.07;96701.40;107562;1271;35276;-81
2022/06/23 09:45:08;;;;;;;2.40;1.40;;;;;;;27.44;27.79;96703.42;107507;1271;46070;-81
2022/06/23 09:48:12;;;;;;;1.90;1.10;;;;;;;27.80;27.70;96711.44;107470;1271;36719;-80
2022/06/23 09:50:58;;;;;;;13.80;9.10;;;;;;;27.67;26.77;96706.19;107596;1271;35049;-80
2022/06/23 09:53:50;;;;;;;4.10;2.10;;;;;;;26.89;27.05;96705.83;107565;1271;56092;-81
2022/06/23 09:56:44;;;;;;;3.40;1.60;;;;;;;26.15;28.14;96710.42;107559;1271;34311;-80
2022/06/23 09:59:55;;;;;;;2.60;2.20;;;;;;;26.20;28.02;96713.35;107359;1271;285736;-80
2022/06/23 10:02:42;;;;;;;2.10;1.30;;;;;;;26.29;29.64;96713.02;107464;1271;55105;-81
2022/06/23 10:05:55;;;;;;;3.00;1.20;;;;;;;26.72;28.19;96712.21;107577;1271;36073;-81
2022/06/23 10:08:40;;;;;;;11.60;6.90;;;;;;;26.46;28.07;96712.21;107464;1271;65139;-81
2022/06/23 10:11:28;;;;;;;4.60;2.70;;;;;;;25.84;28.76;96712.81;107549;1271;45770;-80
2022/06/23 10:14:21;;;;;;;5.10;4.60;;;;;;;25.90;28.80;96714.51;107663;1271;33585;-80
2022/06/23 10:17:20;;;;;;;1.90;1.50;;;;;;;26.07;29.33;96707.80;107300;1271;117777;-80
2022/06/23 10:20:13;;;;;;;3.80;3.20;;;;;;;26.20;29.51;96701.85;107435;1271;51275;-80
2022/06/23 10:23:09;;;;;;;2.80;1.90;;;;;;;25.79;30.71;96707.27;107630;1270;52975;-81
2022/06/23 10:26:15;;;;;;;4.40;1.70;;;;;;;25.68;30.86;96712.42;107636;1271;37900;-80
2022/06/23 10:29:12;;;;;;;3.40;1.80;;;;;;;25.78;31.04;96713.39;107389;1271;31664;-80
2022/06/23 10:32:04;;;;;;;2.10;1.40;;;;;;;25.38;30.65;96707.77;107483;1271;45622;-80
2022/06/23 10:34:52;;;;;;;2.80;1.80;;;;;;;25.52;31.13;96704.34;107536;1271;42912;-79
2022/06/23 10:37:47;;;;;;;2.40;1.20;;;;;;;25.40;31.42;96713.69;107578;1271;38116;-80
2022/06/23 10:40:50;;;;;;;1.80;1.40;;;;;;;25.73;30.71;96715.02;107477;1271;52851;-80
2022/06/23 10:43:45;;;;;;;2.70;1.40;;;;;;;26.20;30.78;96722.73;107368;1271;58973;-80
2022/06/23 10:46:21;;;;;;;3.10;1.30;;;;;;;26.38;29.19;96720.48;107504;1271;35726;-80
2022/06/23 10:49:18;;;;;;;3.50;1.40;;;;;;;25.86;28.84;96717.23;107425;1271;46615;-80
2022/06/23 10:52:14;;;;;;;2.10;1.30;;;;;;;25.55;31.04;96718.33;107502;1271;36313;-80
2022/06/23 10:55:03;;;;;;;2.90;1.80;;;;;;;25.61;30.65;96720.41;107643;1270;42625;-80
2022/06/23 10:57:57;;;;;;;2.10;1.30;;;;;;;25.76;29.98;96722.21;107541;1270;59946;-80
2022/06/23 11:00:38;;;;;;;2.90;1.80;;;;;;;25.51;30.39;96720.61;107543;1271;45738;-80
2022/06/23 11:03:44;;;;;;;2.80;1.50;;;;;;;25.80;30.98;96720.37;107538;1271;44311;-79
2022/06/23 11:06:35;;;;;;;3.00;1.80;;;;;;;25.77;29.06;96720.95;107387;1271;100833;-80
2022/06/23 11:09:33;;;;;;;2.50;1.70;;;;;;;24.95;29.30;96719.13;107532;1271;43036;-79
2022/06/23 11:12:19;;;;;;;3.50;1.80;;;;;;;24.55;30.09;96715.95;107579;1271;37444;-77
2022/06/23 11:15:03;;;;;;;2.50;1.60;;;;;;;24.28;32.00;96716.40;107601;1270;37361;-80
2022/06/23 11:17:47;;;;;;;2.20;1.60;;;;;;;24.02;31.82;96719.77;107505;1270;36547;-79
2022/06/23 11:20:34;;;;;;;3.20;1.60;;;;;;;23.83;32.93;96714.67;107610;1271;33459;-80
2022/06/23 11:23:15;;;;;;;2.20;1.70;;;;;;;23.60;32.77;96715.88;107440;1271;60701;-79
2022/06/23 11:25:58;;;;;;;5.80;1.80;;;;;;;23.51;33.27;96711.07;107576;1271;43688;-80
2022/06/23 11:28:43;;;;;;;3.20;1.90;;;;;;;23.60;32.74;96710.40;107535;1271;33001;-80
2022/06/23 11:31:27;;;;;;;3.60;2.00;;;;;;;23.78;33.56;96705.77;107529;1271;58996;-80
2022/06/23 11:34:30;;;;;;;2.70;1.90;;;;;;;23.61;33.66;96707.48;107535;1271;38581;-79
2022/06/23 11:37:14;;;;;;;3.00;1.90;;;;;;;23.85;33.54;96700.77;107579;1271;44734;-80
2022/06/23 11:40:09;;;;;;;4.00;2.00;;;;;;;24.13;33.45;96701.14;107525;1270;36322;-80
2022/06/23 11:43:14;;;;;;;2.40;1.50;;;;;;;24.24;32.76;96701.23;107546;1271;60386;-80
2022/06/23 11:46:08;;;;;;;1.50;1.30;;;;;;;24.09;32.47;96693.26;107573;1271;46089;-79
2022/06/23 11:48:56;;;;;;;2.40;1.40;;;;;;;23.90;33.72;96691.80;107484;1271;80074;-80
2022/06/23 11:51:42;;;;;;;1.70;1.50;;;;;;;24.22;33.51;96690.38;107546;1271;34661;-80
2022/06/23 11:54:34;;;;;;;4.00;1.90;;;;;;;24.40;33.97;96688.02;107557;1270;51245;-80
2022/06/23 11:57:28;;;;;;;7.60;2.60;;;;;;;24.56;34.15;96689.86;107559;1271;83353;-79
2022/06/23 12:00:05;;;;;;;2.20;1.50;;;;;;;24.58;33.18;96692.13;107599;1270;41868;-80
2022/06/23 12:02:50;;;;;;;1.90;1.50;;;;;;;24.42;33.78;96688.59;107498;1271;60480;-79
2022/06/23 12:05:31;;;;;;;1.90;1.60;;;;;;;24.65;32.95;96682.64;107558;1271;31976;-79
2022/06/23 12:08:24;;;;;;;2.70;1.80;;;;;;;24.36;33.69;96683.71;107582;1271;32390;-80
2022/06/23 12:10:56;;;;;;;3.60;2.10;;;;;;;24.31;33.11;96679.77;107567;1270;57032;-80
2022/06/23 12:13:30;;;;;;;1.60;1.50;;;;;;;24.46;33.31;96679.58;107667;1271;29306;-80
2022/06/23 12:16:02;;;;;;;2.00;1.40;;;;;;;24.52;33.98;96677.26;107563;1271;46746;-80
2022/06/23 12:18:40;;;;;;;2.00;1.50;;;;;;;24.83;33.90;96684.41;107603;1271;54771;-80
2022/06/23 12:21:25;;;;;;;3.20;1.60;;;;;;;24.83;32.33;96686.10;107530;1271;33943;-79
2022/06/23 12:24:01;;;;;;;3.00;1.70;;;;;;;24.49;32.49;96689.69;107525;1271;65279;-79
2022/06/23 12:26:37;;;;;;;2.50;1.30;;;;;;;24.42;32.74;96686.20;107661;1271;36911;-80
2022/06/23 12:29:17;;;;;;;3.30;1.50;;;;;;;24.61;33.42;96684.50;107602;1270;33394;-80
2022/06/23 12:31:56;;;;;;;1.90;1.30;;;;;;;24.91;33.38;96687.98;107522;1271;55389;-80
2022/06/23 12:34:37;;;;;;;2.30;1.40;;;;;;;24.93;32.02;96685.84;107526;1270;50428;-80
2022/06/23 12:37:23;;;;;;;3.10;1.60;;;;;;;24.82;32.59;96681.84;107513;1270;45594;-79
2022/06/23 12:40:01;;;;;;;2.50;1.70;;;;;;;24.73;30.93;96680.63;107449;1270;96810;-80